Time;durP1;ratioP1;P1;durP2;ratioP2;P2;SDS_P1;SDS_P2;PMS_P1;PMS_P2;Temp;Humidity;BMP_temperature;BMP_pressure;BME280_temperature;BME280_humidity;BME280_pressure;Samples;Min_cycle;Max_cycle;Signal;HPM_P1;HPM_P2
2022/05/28 00:01:26;;;;;;;;;;;11.60;99.90;;;;;;5029199;28;20291;-76
2022/05/28 00:03:57;;;;;;;;;;;11.60;99.90;;;;;;5004024;28;19926;-76
2022/05/28 00:06:24;;;;;;;;;;;11.60;99.90;;;;;;4994890;28;19926;-75
2022/05/28 00:08:50;;;;;;;;;;;11.60;99.90;;;;;;4993520;28;19976;-76
2022/05/28 00:11:23;;;;;;;;;;;11.50;99.90;;;;;;4994205;28;19933;-75
2022/05/28 00:13:49;;;;;;;;;;;11.40;99.90;;;;;;4996172;28;19984;-76
2022/05/28 00:16:15;;;;;;;;;;;11.40;99.90;;;;;;4993895;28;20286;-75
2022/05/28 00:18:41;;;;;;;;;;;11.30;99.90;;;;;;4996495;28;19925;-76
2022/05/28 00:21:07;;;;;;;;;;;11.30;99.90;;;;;;4994182;28;19930;-75
2022/05/28 00:23:33;;;;;;;;;;;11.20;99.90;;;;;;4994748;28;19930;-75
2022/05/28 00:26:00;;;;;;;;;;;11.20;99.90;;;;;;4994925;28;20020;-76
2022/05/28 00:28:25;;;;;;;;;;;11.20;99.90;;;;;;4994958;28;19953;-75
2022/05/28 00:30:51;;;;;;;;;;;11.10;99.90;;;;;;4995652;28;19926;-76
2022/05/28 00:33:16;;;;;;;;;;;11.00;99.90;;;;;;4995209;28;20432;-76
2022/05/28 00:35:42;;;;;;;;;;;11.00;99.90;;;;;;4993880;28;19930;-76
2022/05/28 00:38:08;;;;;;;;;;;10.90;99.90;;;;;;4995969;28;19926;-75
2022/05/28 00:40:33;;;;;;;;;;;10.90;99.90;;;;;;5007747;28;19926;-75
2022/05/28 00:42:59;;;;;;;;;;;10.90;99.90;;;;;;5010517;28;19925;-75
2022/05/28 00:45:25;;;;;;;;;;;10.90;99.90;;;;;;5006455;28;19926;-75
2022/05/28 00:47:53;;;;;;;;;;;10.80;99.90;;;;;;4998105;28;19964;-76
2022/05/28 00:50:19;;;;;;;;;;;10.80;99.90;;;;;;4993242;28;20316;-77
2022/05/28 00:52:48;;;;;;;;;;;10.80;99.90;;;;;;4993735;28;19922;-76
2022/05/28 00:55:14;;;;;;;;;;;10.80;99.90;;;;;;4992698;28;20369;-76
2022/05/28 00:57:41;;;;;;;;;;;10.80;99.90;;;;;;4992121;28;19968;-77
2022/05/28 01:00:11;;;;;;;;;;;10.80;99.90;;;;;;4995205;28;19972;-76
2022/05/28 01:02:53;;;;;;;;;;;10.80;99.90;;;;;;4992726;28;19945;-76
2022/05/28 01:05:23;;;;;;;;;;;10.70;99.90;;;;;;4992071;28;19930;-76
2022/05/28 01:08:09;;;;;;;;;;;10.70;99.90;;;;;;4991702;28;20300;-76
2022/05/28 01:10:45;;;;;;;;;;;10.70;99.90;;;;;;5006909;28;19925;-76
2022/05/28 01:13:14;;;;;;;;;;;10.80;99.90;;;;;;5010553;28;19922;-76
2022/05/28 01:15:43;;;;;;;;;;;10.80;99.90;;;;;;5013192;28;19925;-77
2022/05/28 01:18:26;;;;;;;;;;;10.80;99.90;;;;;;5011992;28;20357;-74
2022/05/28 01:20:58;;;;;;;;;;;10.80;99.90;;;;;;5012422;28;20353;-74
2022/05/28 01:23:42;;;;;;;;;;;10.70;99.90;;;;;;5012684;28;19922;-73
2022/05/28 01:26:31;;;;;;;;;;;10.70;99.90;;;;;;5010810;28;20347;-73
2022/05/28 01:28:58;;;;;;;;;;;10.70;99.90;;;;;;5012987;28;19934;-73
2022/05/28 01:31:25;;;;;;;;;;;10.60;99.90;;;;;;5014249;28;19929;-72
2022/05/28 01:33:51;;;;;;;;;;;10.60;99.90;;;;;;5012521;28;20377;-74
2022/05/28 01:36:18;;;;;;;;;;;10.50;99.90;;;;;;5011726;28;19929;-73
2022/05/28 01:38:44;;;;;;;;;;;10.60;99.90;;;;;;4993648;28;19926;-73
2022/05/28 01:41:11;;;;;;;;;;;10.60;99.90;;;;;;4992220;28;19926;-73
2022/05/28 01:43:38;;;;;;;;;;;10.60;99.90;;;;;;4993993;28;19994;-73
2022/05/28 01:46:05;;;;;;;;;;;10.70;99.90;;;;;;4993259;28;19933;-73
2022/05/28 01:48:34;;;;;;;;;;;10.60;99.90;;;;;;4993085;28;19926;-75
2022/05/28 01:51:01;;;;;;;;;;;10.60;99.90;;;;;;4993705;28;19948;-75
2022/05/28 01:56:11;;;;;;;;;;;10.50;99.90;;;;;;4993037;28;19926;-76
2022/05/28 01:58:37;;;;;;;;;;;10.50;99.90;;;;;;4992428;28;19976;-76
2022/05/28 02:01:04;;;;;;;;;;;10.50;99.90;;;;;;4998235;28;19925;-76
2022/05/28 02:03:31;;;;;;;;;;;10.50;99.90;;;;;;5012040;28;19925;-75
2022/05/28 02:05:59;;;;;;;;;;;10.50;99.90;;;;;;5013402;28;19929;-76
2022/05/28 02:08:29;;;;;;;;;;;10.60;99.90;;;;;;5012373;28;19972;-76
2022/05/28 02:11:04;;;;;;;;;;;10.70;99.90;;;;;;5011965;28;19975;-76
2022/05/28 02:13:34;;;;;;;;;;;10.70;99.90;;;;;;5013249;28;19933;-76
2022/05/28 02:16:09;;;;;;;;;;;10.60;99.90;;;;;;5008997;28;20048;-76
2022/05/28 02:18:54;;;;;;;;;;;10.60;99.90;;;;;;5012983;28;19925;-76
2022/05/28 02:21:23;;;;;;;;;;;10.70;99.90;;;;;;5011298;28;19925;-76
2022/05/28 02:23:55;;;;;;;;;;;10.60;99.90;;;;;;5010789;28;19980;-76
2022/05/28 02:26:25;;;;;;;;;;;10.60;99.90;;;;;;5011544;28;19926;-76
2022/05/28 02:28:50;;;;;;;;;;;10.60;99.90;;;;;;5011115;28;19960;-76
2022/05/28 02:31:18;;;;;;;;;;;10.60;99.90;;;;;;5010139;28;20300;-76
2022/05/28 02:33:44;;;;;;;;;;;10.60;99.90;;;;;;5011489;28;19937;-76
2022/05/28 02:36:13;;;;;;;;;;;10.60;99.90;;;;;;5010797;28;19925;-75
2022/05/28 02:38:39;;;;;;;;;;;10.50;99.90;;;;;;5011681;28;20281;-76
2022/05/28 02:41:05;;;;;;;;;;;10.50;99.90;;;;;;5009806;28;19932;-76
2022/05/28 02:43:31;;;;;;;;;;;10.50;99.90;;;;;;5010463;28;20396;-76
2022/05/28 02:46:00;;;;;;;;;;;10.50;99.90;;;;;;5011701;28;19929;-76
2022/05/28 02:48:26;;;;;;;;;;;10.40;99.90;;;;;;5011417;28;20372;-76
2022/05/28 02:50:51;;;;;;;;;;;10.40;99.90;;;;;;5000198;28;19961;-76
2022/05/28 02:53:17;;;;;;;;;;;10.40;99.90;;;;;;4992608;28;20385;-75
2022/05/28 02:55:42;;;;;;;;;;;10.40;99.90;;;;;;4991529;28;20012;-75
2022/05/28 02:58:08;;;;;;;;;;;10.30;99.90;;;;;;4992010;28;20020;-75
2022/05/28 03:00:34;;;;;;;;;;;10.40;99.90;;;;;;4991941;28;19972;-75
2022/05/28 03:02:59;;;;;;;;;;;10.40;99.90;;;;;;4992666;28;19926;-75
2022/05/28 03:05:26;;;;;;;;;;;10.40;99.90;;;;;;4993313;28;20397;-75
2022/05/28 03:07:52;;;;;;;;;;;10.50;99.90;;;;;;4992900;28;20047;-75
2022/05/28 03:10:17;;;;;;;;;;;10.40;99.90;;;;;;4991056;28;20271;-75
2022/05/28 03:12:43;;;;;;;;;;;10.40;99.90;;;;;;4991877;28;20408;-75
2022/05/28 03:15:09;;;;;;;;;;;10.50;99.90;;;;;;4991083;28;19930;-75
2022/05/28 03:17:35;;;;;;;;;;;10.40;99.90;;;;;;4992233;28;19925;-76
2022/05/28 03:20:01;;;;;;;;;;;10.50;99.90;;;;;;4991747;28;19926;-75
2022/05/28 03:22:27;;;;;;;;;;;10.50;99.90;;;;;;4992792;28;19933;-75
2022/05/28 03:24:53;;;;;;;;;;;10.50;99.90;;;;;;4991538;28;19926;-75
2022/05/28 03:27:18;;;;;;;;;;;10.50;99.90;;;;;;4991481;28;20400;-75
2022/05/28 03:29:44;;;;;;;;;;;10.60;99.90;;;;;;4991218;28;19926;-75
2022/05/28 03:32:09;;;;;;;;;;;10.60;99.90;;;;;;4992197;28;20016;-75
2022/05/28 03:34:35;;;;;;;;;;;10.70;99.90;;;;;;5006347;28;19926;-74
2022/05/28 03:37:00;;;;;;;;;;;10.70;99.90;;;;;;5010666;28;19980;-73
2022/05/28 03:39:26;;;;;;;;;;;10.70;99.90;;;;;;5011151;28;20008;-74
2022/05/28 03:41:51;;;;;;;;;;;10.70;99.90;;;;;;5009448;28;19926;-73
2022/05/28 03:44:17;;;;;;;;;;;10.70;99.90;;;;;;5011855;28;19930;-73
2022/05/28 03:46:43;;;;;;;;;;;10.70;99.90;;;;;;5010066;28;19949;-73
2022/05/28 03:49:28;;;;;;;;;;;10.70;99.90;;;;;;5011494;28;19932;-73
2022/05/28 03:51:54;;;;;;;;;;;10.70;99.90;;;;;;5010852;28;19995;-73
2022/05/28 03:54:20;;;;;;;;;;;10.80;99.90;;;;;;5009775;28;19953;-73
2022/05/28 03:56:46;;;;;;;;;;;10.70;99.90;;;;;;5007488;28;19930;-74
2022/05/28 03:59:12;;;;;;;;;;;10.70;99.90;;;;;;4994636;28;19969;-74
2022/05/28 04:01:38;;;;;;;;;;;10.70;99.90;;;;;;4993787;28;19925;-74
2022/05/28 04:04:04;;;;;;;;;;;10.70;99.90;;;;;;4994478;28;20020;-74
2022/05/28 04:06:29;;;;;;;;;;;10.70;99.90;;;;;;4995566;28;19921;-74
2022/05/28 04:08:55;;;;;;;;;;;10.80;99.90;;;;;;4993785;28;19926;-74
2022/05/28 04:11:20;;;;;;;;;;;10.70;99.90;;;;;;4996668;28;19926;-74
2022/05/28 04:13:46;;;;;;;;;;;10.80;99.90;;;;;;5000695;28;19957;-73
2022/05/28 04:16:12;;;;;;;;;;;10.70;99.90;;;;;;4993027;28;20323;-73
2022/05/28 04:18:38;;;;;;;;;;;10.70;99.90;;;;;;4995539;28;19930;-73
2022/05/28 04:21:03;;;;;;;;;;;10.60;99.90;;;;;;4994261;28;19933;-72
2022/05/28 04:23:28;;;;;;;;;;;10.60;99.90;;;;;;4993451;28;20373;-75
2022/05/28 04:25:54;;;;;;;;;;;10.60;99.90;;;;;;4994198;28;19926;-75
2022/05/28 04:28:20;;;;;;;;;;;10.50;99.90;;;;;;4996014;28;19949;-75
2022/05/28 04:30:45;;;;;;;;;;;10.50;99.90;;;;;;4993694;28;20675;-75
2022/05/28 04:33:11;;;;;;;;;;;10.50;99.90;;;;;;4993505;28;19926;-76
2022/05/28 04:35:36;;;;;;;;;;;10.50;99.90;;;;;;4994649;28;20426;-75
2022/05/28 04:38:02;;;;;;;;;;;10.50;99.90;;;;;;4993845;28;20362;-75
2022/05/28 04:40:27;;;;;;;;;;;10.50;99.90;;;;;;4993831;28;19933;-75
2022/05/28 04:42:53;;;;;;;;;;;10.60;99.90;;;;;;5007920;28;20348;-75
2022/05/28 04:45:18;;;;;;;;;;;10.60;99.90;;;;;;5014233;28;19930;-75
2022/05/28 04:47:44;;;;;;;;;;;10.70;99.90;;;;;;5014382;28;20270;-75
2022/05/28 04:50:10;;;;;;;;;;;10.80;99.90;;;;;;5003799;28;19925;-75
2022/05/28 04:52:36;;;;;;;;;;;10.90;99.90;;;;;;5002061;28;20080;-76
2022/05/28 04:55:02;;;;;;;;;;;10.90;99.90;;;;;;4996319;28;19933;-74
2022/05/28 04:57:27;;;;;;;;;;;11.00;99.90;;;;;;5010356;28;20373;-75
2022/05/28 04:59:53;;;;;;;;;;;11.00;99.90;;;;;;5014638;28;19929;-75
2022/05/28 05:02:18;;;;;;;;;;;11.10;99.90;;;;;;5012371;28;20020;-74
2022/05/28 05:04:44;;;;;;;;;;;11.20;99.90;;;;;;5012996;28;19933;-75
2022/05/28 05:07:09;;;;;;;;;;;11.20;99.90;;;;;;5010991;28;19977;-73
2022/05/28 05:09:35;;;;;;;;;;;11.30;99.90;;;;;;5009442;28;19933;-72
2022/05/28 05:12:01;;;;;;;;;;;11.30;99.90;;;;;;5010311;28;19930;-73
2022/05/28 05:14:26;;;;;;;;;;;11.40;99.90;;;;;;5010413;28;20392;-73
2022/05/28 05:16:52;;;;;;;;;;;11.40;99.90;;;;;;5010999;28;19979;-73
2022/05/28 05:19:17;;;;;;;;;;;11.40;99.90;;;;;;5010552;28;19976;-73
2022/05/28 05:21:43;;;;;;;;;;;11.60;99.90;;;;;;5010529;28;19932;-73
2022/05/28 05:24:08;;;;;;;;;;;11.30;99.90;;;;;;5008480;28;20046;-73
2022/05/28 05:26:34;;;;;;;;;;;11.30;99.90;;;;;;5013311;28;19933;-73
2022/05/28 05:28:59;;;;;;;;;;;11.40;99.90;;;;;;5013557;28;19960;-73
2022/05/28 05:31:25;;;;;;;;;;;11.50;99.90;;;;;;5013872;28;19929;-73
2022/05/28 05:33:50;;;;;;;;;;;11.80;99.90;;;;;;5010258;28;19921;-73
2022/05/28 05:36:16;;;;;;;;;;;11.50;99.90;;;;;;5013523;28;19925;-73
2022/05/28 05:38:41;;;;;;;;;;;11.60;99.90;;;;;;5011733;28;19921;-73
2022/05/28 05:41:07;;;;;;;;;;;11.70;99.90;;;;;;4992164;28;19985;-73
2022/05/28 05:43:33;;;;;;;;;;;11.70;99.90;;;;;;4994064;28;20297;-72
2022/05/28 05:45:59;;;;;;;;;;;11.70;99.90;;;;;;4992918;28;20386;-74
2022/05/28 05:48:26;;;;;;;;;;;12.00;99.90;;;;;;4993641;28;20288;-74
2022/05/28 05:50:51;;;;;;;;;;;11.70;99.90;;;;;;5011800;28;19925;-74
2022/05/28 05:53:17;;;;;;;;;;;11.70;99.90;;;;;;5011399;28;19980;-74
2022/05/28 05:55:43;;;;;;;;;;;11.80;99.90;;;;;;5011903;28;19925;-74
2022/05/28 05:58:09;;;;;;;;;;;11.90;99.90;;;;;;5011494;28;20321;-74
2022/05/28 06:00:34;;;;;;;;;;;12.00;99.90;;;;;;5011116;28;20322;-74
2022/05/28 06:03:06;;;;;;;;;;;12.00;99.90;;;;;;5011831;28;19925;-73
2022/05/28 06:05:32;;;;;;;;;;;12.00;99.90;;;;;;5013043;28;19925;-74
2022/05/28 06:07:57;;;;;;;;;;;12.00;99.90;;;;;;4997259;28;19937;-74
2022/05/28 06:10:23;;;;;;;;;;;12.00;99.90;;;;;;4993346;28;19930;-74
2022/05/28 06:12:49;;;;;;;;;;;12.00;99.90;;;;;;4993590;28;19922;-74
2022/05/28 06:15:15;;;;;;;;;;;11.90;99.90;;;;;;4991134;28;19933;-74
2022/05/28 06:17:40;;;;;;;;;;;11.90;99.90;;;;;;4993598;28;19922;-74
2022/05/28 06:20:08;;;;;;;;;;;12.00;99.90;;;;;;4991721;28;20328;-75
2022/05/28 06:22:34;;;;;;;;;;;12.10;99.90;;;;;;4993726;28;20267;-74
2022/05/28 06:24:59;;;;;;;;;;;12.10;99.90;;;;;;4993250;28;19928;-74
2022/05/28 06:27:25;;;;;;;;;;;12.20;99.90;;;;;;4993287;28;19925;-74
2022/05/28 06:29:50;;;;;;;;;;;12.30;99.90;;;;;;4992948;28;19925;-75
2022/05/28 06:32:16;;;;;;;;;;;12.40;99.90;;;;;;4991728;28;20278;-75
2022/05/28 06:34:42;;;;;;;;;;;12.60;99.90;;;;;;4991931;28;20025;-73
2022/05/28 06:37:08;;;;;;;;;;;12.70;99.90;;;;;;4991242;28;20028;-75
2022/05/28 06:39:34;;;;;;;;;;;12.80;99.90;;;;;;4999840;28;20369;-74
2022/05/28 06:41:59;;;;;;;;;;;13.10;99.90;;;;;;5011180;28;20399;-74
2022/05/28 06:44:25;;;;;;;;;;;13.00;99.90;;;;;;5011872;28;19925;-72
2022/05/28 06:46:51;;;;;;;;;;;13.00;99.90;;;;;;5011298;28;19972;-74
2022/05/28 06:49:16;;;;;;;;;;;13.20;99.90;;;;;;5009883;28;20336;-74
2022/05/28 06:51:42;;;;;;;;;;;13.30;99.90;;;;;;5010035;28;19925;-75
2022/05/28 06:54:07;;;;;;;;;;;13.40;99.90;;;;;;4992370;28;19937;-74
2022/05/28 06:56:33;;;;;;;;;;;13.50;99.90;;;;;;4992120;28;19933;-74
2022/05/28 06:58:59;;;;;;;;;;;13.50;99.90;;;;;;4992616;28;20298;-75
2022/05/28 07:01:24;;;;;;;;;;;13.60;99.90;;;;;;4992615;28;19926;-75
2022/05/28 07:03:50;;;;;;;;;;;13.60;99.90;;;;;;5003766;28;19964;-76
2022/05/28 07:06:15;;;;;;;;;;;13.80;99.90;;;;;;5007639;28;20325;-71
2022/05/28 07:08:41;;;;;;;;;;;13.90;99.90;;;;;;5001662;28;20324;-71
2022/05/28 07:11:07;;;;;;;;;;;14.10;99.90;;;;;;5007454;28;19929;-71
2022/05/28 07:13:36;;;;;;;;;;;13.90;99.90;;;;;;5021446;28;19948;-71
2022/05/28 07:16:03;;;;;;;;;;;14.10;99.90;;;;;;5017964;28;19933;-72
2022/05/28 07:18:32;;;;;;;;;;;14.30;99.90;;;;;;4985070;28;19925;-73
2022/05/28 07:20:58;;;;;;;;;;;14.30;99.90;;;;;;4996675;28;20304;-70
2022/05/28 07:23:25;;;;;;;;;;;14.70;99.90;;;;;;4992366;28;20372;-79
2022/05/28 07:26:02;;;;;;;;;;;15.10;99.90;;;;;;4994483;28;20340;-75
2022/05/28 07:28:33;;;;;;;;;;;15.30;99.90;;;;;;4995573;28;20420;-72
2022/05/28 07:31:00;;;;;;;;;;;15.50;99.90;;;;;;4993084;28;19926;-75
2022/05/28 07:33:27;;;;;;;;;;;15.50;99.90;;;;;;4999414;28;20441;-76
2022/05/28 07:35:53;;;;;;;;;;;15.90;99.90;;;;;;5012340;28;20297;-71
2022/05/28 07:38:19;;;;;;;;;;;16.00;99.90;;;;;;5004155;28;20471;-71
2022/05/28 07:40:44;;;;;;;;;;;15.90;99.90;;;;;;5017543;28;19921;-75
2022/05/28 07:43:10;;;;;;;;;;;15.60;99.90;;;;;;5027579;28;20288;-81
2022/05/28 07:45:37;;;;;;;;;;;15.70;99.90;;;;;;5011071;28;19929;-74
2022/05/28 07:48:03;;;;;;;;;;;15.70;99.90;;;;;;5003466;28;20547;-73
2022/05/28 07:50:29;;;;;;;;;;;16.00;99.90;;;;;;5010024;28;19925;-74
2022/05/28 07:52:55;;;;;;;;;;;16.40;99.30;;;;;;5016205;28;19978;-73
2022/05/28 07:55:21;;;;;;;;;;;16.60;99.20;;;;;;5018782;28;19964;-76
2022/05/28 07:57:46;;;;;;;;;;;16.70;99.00;;;;;;5012031;28;19965;-70
2022/05/28 08:00:12;;;;;;;;;;;16.60;99.00;;;;;;4994765;28;19921;-74
2022/05/28 08:02:37;;;;;;;;;;;16.20;99.30;;;;;;4995285;28;19984;-75
2022/05/28 08:05:03;;;;;;;;;;;16.20;99.20;;;;;;4999366;28;19926;-77
2022/05/28 08:07:29;;;;;;;;;;;16.30;99.50;;;;;;5012334;28;19933;-82
2022/05/28 08:09:55;;;;;;;;;;;16.80;98.90;;;;;;5018510;28;19964;-79
2022/05/28 08:12:21;;;;;;;;;;;17.30;97.60;;;;;;5011746;28;19933;-75
2022/05/28 08:14:47;;;;;;;;;;;17.80;96.80;;;;;;5010229;28;19921;-72
2022/05/28 08:17:12;;;;;;;;;;;18.10;96.20;;;;;;4992991;28;19926;-73
2022/05/28 08:19:38;;;;;;;;;;;17.90;96.20;;;;;;4993579;28;19921;-74
2022/05/28 08:24:48;;;;;;;;;;;19.00;95.00;;;;;;4995951;28;19929;-77
2022/05/28 08:27:13;;;;;;;;;;;19.40;94.30;;;;;;5006899;28;19933;-77
2022/05/28 08:29:39;;;;;;;;;;;19.90;93.90;;;;;;5003556;28;20368;-76
2022/05/28 08:32:04;;;;;;;;;;;20.30;93.60;;;;;;4999701;28;19925;-76
2022/05/28 08:34:30;;;;;;;;;;;20.10;93.80;;;;;;5018237;28;19932;-77
2022/05/28 08:36:55;;;;;;;;;;;19.90;93.60;;;;;;5024309;28;19932;-77
2022/05/28 08:39:21;;;;;;;;;;;19.10;95.60;;;;;;5032261;28;19975;-77
2022/05/28 08:41:57;;;;;;;;;;;19.80;94.20;;;;;;5032055;28;19932;-76
2022/05/28 08:44:25;;;;;;;;;;;19.80;93.50;;;;;;5034009;28;19932;-76
2022/05/28 08:46:53;;;;;;;;;;;19.30;93.20;;;;;;5034072;28;19925;-77
2022/05/28 08:49:20;;;;;;;;;;;19.70;94.40;;;;;;5031583;28;19964;-77
2022/05/28 08:51:54;;;;;;;;;;;20.40;92.90;;;;;;5001071;28;19976;-77
2022/05/28 08:54:35;;;;;;;;;;;20.80;91.80;;;;;;4998247;28;19926;-74
2022/05/28 08:57:07;;;;;;;;;;;20.50;92.70;;;;;;5018620;28;19956;-78
2022/05/28 08:59:34;;;;;;;;;;;20.90;92.80;;;;;;5018580;28;20373;-76
2022/05/28 09:02:00;;;;;;;;;;;20.80;93.20;;;;;;5016271;28;19925;-71
2022/05/28 09:04:30;;;;;;;;;;;20.30;92.50;;;;;;5000402;28;19940;-79
2022/05/28 09:06:58;;;;;;;;;;;19.70;93.00;;;;;;5021854;28;20271;-79
2022/05/28 09:09:28;;;;;;;;;;;19.80;93.10;;;;;;5021991;28;19932;-80
2022/05/28 09:11:59;;;;;;;;;;;19.80;93.00;;;;;;5017957;28;20021;-76
2022/05/28 09:14:25;;;;;;;;;;;19.90;92.70;;;;;;5015052;28;19926;-73
2022/05/28 09:16:52;;;;;;;;;;;19.60;93.40;;;;;;5020962;28;19960;-75
2022/05/28 09:19:20;;;;;;;;;;;19.50;94.00;;;;;;5019436;28;19929;-75
2022/05/28 09:21:46;;;;;;;;;;;19.60;93.20;;;;;;5020336;28;19988;-73
2022/05/28 09:24:22;;;;;;;;;;;19.70;92.90;;;;;;5022247;28;19932;-68
2022/05/28 09:26:54;;;;;;;;;;;19.50;93.50;;;;;;5022136;28;19940;-69
2022/05/28 09:29:39;;;;;;;;;;;19.90;93.60;;;;;;5019008;28;19929;-70
2022/05/28 09:32:12;;;;;;;;;;;19.60;93.20;;;;;;5004206;28;20029;-69
2022/05/28 09:34:38;;;;;;;;;;;19.30;93.30;;;;;;5013907;28;19932;-70
2022/05/28 09:37:13;;;;;;;;;;;18.60;94.10;;;;;;5021475;28;19934;-70
2022/05/28 09:39:52;;;;;;;;;;;18.10;94.40;;;;;;5024967;28;19956;-71
2022/05/28 09:42:26;;;;;;;;;;;17.50;94.70;;;;;;5031988;28;19929;-72
2022/05/28 09:44:58;;;;;;;;;;;17.20;95.80;;;;;;5032920;28;19921;-75
2022/05/28 09:47:23;;;;;;;;;;;17.30;95.90;;;;;;5021273;28;19960;-72
2022/05/28 09:49:53;;;;;;;;;;;18.10;95.90;;;;;;5020191;28;19972;-71
2022/05/28 09:52:30;;;;;;;;;;;18.20;95.10;;;;;;5020060;28;20058;-70
2022/05/28 09:55:12;;;;;;;;;;;17.90;94.90;;;;;;5022155;28;19921;-70
2022/05/28 09:57:51;;;;;;;;;;;17.60;95.60;;;;;;5020690;28;19936;-69
2022/05/28 10:00:16;;;;;;;;;;;18.00;95.80;;;;;;5019271;28;20392;-70
2022/05/28 10:02:43;;;;;;;;;;;18.30;95.10;;;;;;5022888;28;19933;-69
2022/05/28 10:05:11;;;;;;;;;;;18.10;94.80;;;;;;5004106;28;19976;-69
2022/05/28 10:07:38;;;;;;;;;;;17.90;94.70;;;;;;5003329;28;19926;-70
2022/05/28 10:10:12;;;;;;;;;;;17.50;95.20;;;;;;4999059;28;20496;-69
2022/05/28 10:12:37;;;;;;;;;;;17.10;95.60;;;;;;5002577;28;19973;-72
2022/05/28 10:15:09;;;;;;;;;;;17.70;96.10;;;;;;5005662;28;19925;-71
2022/05/28 10:17:35;;;;;;;;;;;18.50;95.70;;;;;;5010701;28;19936;-73
2022/05/28 10:20:03;;;;;;;;;;;18.80;94.90;;;;;;5000968;28;19930;-71
2022/05/28 10:22:29;;;;;;;;;;;19.40;94.50;;;;;;4992620;28;19933;-70
2022/05/28 10:24:58;;;;;;;;;;;20.20;94.50;;;;;;4996286;28;19929;-65
2022/05/28 10:27:23;;;;;;;;;;;20.30;92.80;;;;;;5009877;28;19941;-68
2022/05/28 10:29:49;;;;;;;;;;;20.50;92.50;;;;;;5002358;28;19929;-65
2022/05/28 10:32:18;;;;;;;;;;;20.50;92.10;;;;;;5016363;28;20020;-68
2022/05/28 10:34:43;;;;;;;;;;;20.30;93.20;;;;;;5017863;28;19933;-69
2022/05/28 10:37:16;;;;;;;;;;;20.60;93.20;;;;;;5016718;28;20348;-69
2022/05/28 10:39:43;;;;;;;;;;;20.60;93.60;;;;;;5028079;28;20336;-71
2022/05/28 10:42:10;;;;;;;;;;;20.60;93.20;;;;;;5003624;28;20012;-70
2022/05/28 10:44:36;;;;;;;;;;;20.10;92.80;;;;;;5024323;28;19925;-69
2022/05/28 10:47:10;;;;;;;;;;;19.60;93.20;;;;;;5023885;28;19955;-70
2022/05/28 10:49:41;;;;;;;;;;;19.00;93.60;;;;;;5030213;28;19929;-70
2022/05/28 10:52:12;;;;;;;;;;;18.10;94.40;;;;;;5024858;28;20320;-68
2022/05/28 10:54:37;;;;;;;;;;;18.20;94.80;;;;;;5031972;28;20456;-68
2022/05/28 10:57:03;;;;;;;;;;;18.30;94.60;;;;;;5022502;28;20012;-68
2022/05/28 10:59:32;;;;;;;;;;;18.00;94.70;;;;;;5016038;28;19925;-68
2022/05/28 11:02:00;;;;;;;;;;;17.60;95.40;;;;;;5021053;28;20480;-69
2022/05/28 11:04:35;;;;;;;;;;;17.10;95.80;;;;;;5019254;28;20364;-69
2022/05/28 11:07:09;;;;;;;;;;;16.60;97.50;;;;;;5019884;28;19933;-68
2022/05/28 11:09:55;;;;;;;;;;;16.30;97.50;;;;;;5019765;28;19925;-68
2022/05/28 11:12:36;;;;;;;;;;;16.10;98.90;;;;;;5020352;28;20397;-68
2022/05/28 11:15:01;;;;;;;;;;;15.90;98.70;;;;;;5017072;28;20018;-69
2022/05/28 11:17:50;;;;;;;;;;;16.00;98.90;;;;;;5023048;28;19972;-69
2022/05/28 11:20:29;;;;;;;;;;;16.00;99.70;;;;;;5024353;28;19929;-70
2022/05/28 11:23:04;;;;;;;;;;;15.80;99.90;;;;;;5010337;28;19933;-69
2022/05/28 11:25:35;;;;;;;;;;;15.60;99.90;;;;;;5002604;28;19979;-70
2022/05/28 11:28:20;;;;;;;;;;;15.60;99.90;;;;;;5007620;28;19929;-70
2022/05/28 11:30:48;;;;;;;;;;;15.50;99.90;;;;;;5009730;28;19933;-70
2022/05/28 11:33:25;;;;;;;;;;;16.00;99.90;;;;;;5010058;28;19991;-70
2022/05/28 11:36:09;;;;;;;;;;;16.20;99.90;;;;;;5011715;28;20377;-69
2022/05/28 11:38:40;;;;;;;;;;;16.60;99.90;;;;;;5015484;28;19929;-70
2022/05/28 11:41:24;;;;;;;;;;;16.80;99.90;;;;;;5016631;28;19929;-68
2022/05/28 11:43:52;;;;;;;;;;;16.50;99.90;;;;;;5009962;28;20304;-70
2022/05/28 11:46:27;;;;;;;;;;;16.40;99.90;;;;;;5008302;28;19940;-70
2022/05/28 11:52:07;;;;;;;;;;;16.10;99.90;;;;;;5007207;28;20048;-70
2022/05/28 11:54:36;;;;;;;;;;;16.70;99.90;;;;;;4990532;28;19936;-70
2022/05/28 11:57:03;;;;;;;;;;;17.50;99.60;;;;;;4990433;28;19987;-70
2022/05/28 11:59:29;;;;;;;;;;;18.00;98.60;;;;;;4995177;28;20029;-67
2022/05/28 12:02:00;;;;;;;;;;;18.30;96.50;;;;;;5015503;28;20504;-67
2022/05/28 12:04:26;;;;;;;;;;;18.40;95.60;;;;;;5014454;28;20389;-71
2022/05/28 12:07:14;;;;;;;;;;;18.50;94.70;;;;;;5015157;28;19976;-72
2022/05/28 12:09:42;;;;;;;;;;;18.70;94.80;;;;;;5017686;28;19929;-71
2022/05/28 12:12:16;;;;;;;;;;;18.90;95.40;;;;;;5017176;28;20015;-69
2022/05/28 12:14:44;;;;;;;;;;;19.10;95.00;;;;;;5018654;28;19933;-70
2022/05/28 12:17:21;;;;;;;;;;;19.30;95.60;;;;;;5016296;28;19948;-70
2022/05/28 12:19:49;;;;;;;;;;;19.40;94.70;;;;;;5008312;28;19975;-71
2022/05/28 12:22:22;;;;;;;;;;;19.50;93.50;;;;;;4994383;28;20020;-73
2022/05/28 12:24:55;;;;;;;;;;;19.50;93.80;;;;;;4999083;28;20368;-71
2022/05/28 12:27:22;;;;;;;;;;;19.60;95.70;;;;;;5007918;28;19929;-73
2022/05/28 12:29:58;;;;;;;;;;;19.70;93.90;;;;;;5010708;28;19933;-71
2022/05/28 12:32:26;;;;;;;;;;;19.50;94.20;;;;;;4998300;28;19930;-71
2022/05/28 12:35:02;;;;;;;;;;;19.50;94.30;;;;;;5009192;28;19936;-69
2022/05/28 12:37:34;;;;;;;;;;;19.80;94.60;;;;;;5010326;28;19934;-69
2022/05/28 12:40:11;;;;;;;;;;;19.80;94.10;;;;;;5005974;28;19955;-69
2022/05/28 12:42:36;;;;;;;;;;;19.60;93.70;;;;;;5008142;28;19937;-68
2022/05/28 12:45:13;;;;;;;;;;;19.50;93.40;;;;;;5008291;28;19930;-68
2022/05/28 12:47:39;;;;;;;;;;;19.40;93.70;;;;;;5009238;28;19976;-70
2022/05/28 12:50:24;;;;;;;;;;;19.20;93.50;;;;;;4989880;28;19981;-69
2022/05/28 12:53:11;;;;;;;;;;;18.90;94.00;;;;;;4992990;28;19929;-69
2022/05/28 12:55:38;;;;;;;;;;;18.70;93.60;;;;;;5006909;28;19929;-69
2022/05/28 12:58:09;;;;;;;;;;;18.50;94.60;;;;;;5002346;28;19929;-69
2022/05/28 13:00:54;;;;;;;;;;;18.30;95.60;;;;;;5015733;28;20474;-71
2022/05/28 13:03:22;;;;;;;;;;;18.30;95.60;;;;;;5017016;28;19933;-70
2022/05/28 13:05:48;;;;;;;;;;;18.30;97.40;;;;;;5016236;28;20024;-69
2022/05/28 13:08:17;;;;;;;;;;;18.30;96.00;;;;;;5015491;28;20331;-69
2022/05/28 13:10:57;;;;;;;;;;;18.50;96.30;;;;;;5019719;28;19925;-70
2022/05/28 13:13:25;;;;;;;;;;;18.70;95.40;;;;;;5024308;28;19926;-69
2022/05/28 13:16:12;;;;;;;;;;;18.80;95.90;;;;;;5022138;28;19933;-70
2022/05/28 13:18:41;;;;;;;;;;;18.90;93.80;;;;;;5020219;28;19929;-71
2022/05/28 13:21:25;;;;;;;;;;;18.90;95.90;;;;;;5021099;28;19926;-70
2022/05/28 13:24:09;;;;;;;;;;;18.60;94.90;;;;;;5011430;28;19926;-73
2022/05/28 13:26:52;;;;;;;;;;;18.20;94.70;;;;;;5012162;28;19937;-72
2022/05/28 13:29:21;;;;;;;;;;;18.00;94.50;;;;;;5007369;28;19930;-71
2022/05/28 13:31:50;;;;;;;;;;;17.70;95.00;;;;;;4997614;28;19929;-71
2022/05/28 13:34:26;;;;;;;;;;;17.60;95.60;;;;;;5009944;28;19921;-72
2022/05/28 13:36:52;;;;;;;;;;;17.50;95.90;;;;;;5012587;28;20288;-71
2022/05/28 13:39:18;;;;;;;;;;;17.30;96.70;;;;;;5012730;28;19932;-71
2022/05/28 13:41:45;;;;;;;;;;;17.30;97.20;;;;;;4995902;28;19941;-70
2022/05/28 13:44:13;;;;;;;;;;;17.00;97.00;;;;;;5004269;28;19948;-70
2022/05/28 13:46:44;;;;;;;;;;;16.90;96.70;;;;;;4992340;28;20013;-71
2022/05/28 13:49:10;;;;;;;;;;;16.70;97.10;;;;;;4992282;28;20279;-72
2022/05/28 13:51:36;;;;;;;;;;;16.60;96.50;;;;;;4998631;28;19940;-71
2022/05/28 13:54:05;;;;;;;;;;;16.70;97.00;;;;;;5011790;28;19925;-72
2022/05/28 13:56:32;;;;;;;;;;;17.00;96.90;;;;;;5013065;28;19979;-71
2022/05/28 13:58:58;;;;;;;;;;;17.40;97.40;;;;;;5002230;28;19932;-71
2022/05/28 14:01:28;;;;;;;;;;;17.70;95.90;;;;;;5008301;28;19925;-73
2022/05/28 14:03:54;;;;;;;;;;;17.90;96.60;;;;;;5011915;28;19972;-71
2022/05/28 14:06:23;;;;;;;;;;;17.60;96.20;;;;;;5010957;28;19929;-71
2022/05/28 14:08:50;;;;;;;;;;;17.20;96.40;;;;;;5013245;28;19936;-73
2022/05/28 14:11:19;;;;;;;;;;;17.10;97.10;;;;;;5010311;28;20289;-75
2022/05/28 14:13:50;;;;;;;;;;;16.30;97.00;;;;;;5002601;28;20025;-71
2022/05/28 14:16:21;;;;;;;;;;;16.60;97.60;;;;;;5011727;28;19948;-72
2022/05/28 14:18:46;;;;;;;;;;;16.80;98.30;;;;;;5012057;28;19953;-73
2022/05/28 14:21:12;;;;;;;;;;;17.00;97.60;;;;;;5010779;28;20369;-72
2022/05/28 14:23:45;;;;;;;;;;;17.20;97.60;;;;;;5010895;28;19930;-72
2022/05/28 14:26:12;;;;;;;;;;;17.20;97.30;;;;;;5010970;28;19926;-72
2022/05/28 14:28:37;;;;;;;;;;;17.00;97.30;;;;;;5010673;28;19925;-74
2022/05/28 14:31:03;;;;;;;;;;;17.00;97.20;;;;;;5011258;28;19932;-72
2022/05/28 14:33:30;;;;;;;;;;;16.70;97.40;;;;;;5010112;28;20289;-72